sensor_id;sensor_type;location;lat;lon;timestamp;P1;durP1;ratioP1;P2;durP2;ratioP2
75785;SDS011;64402;44.708;37.644;2024-03-17T00:01:02;23.25;;;4.03;;
75785;SDS011;64402;44.708;37.644;2024-03-17T00:03:30;29.65;;;5.20;;
75785;SDS011;64402;44.708;37.644;2024-03-17T00:05:57;22.55;;;4.45;;
75785;SDS011;64402;44.708;37.644;2024-03-17T00:08:26;24.48;;;4.30;;
75785;SDS011;64402;44.708;37.644;2024-03-17T00:10:53;18.52;;;4.40;;
75785;SDS011;64402;44.708;37.644;2024-03-17T00:13:20;21.30;;;4.50;;
75785;SDS011;64402;44.708;37.644;2024-03-17T00:15:48;17.50;;;4.57;;
75785;SDS011;64402;44.708;37.644;2024-03-17T00:18:16;24.60;;;4.30;;
75785;SDS011;64402;44.708;37.644;2024-03-17T00:20:43;29.83;;;4.15;;
75785;SDS011;64402;44.708;37.644;2024-03-17T00:23:10;21.55;;;4.55;;
75785;SDS011;64402;44.708;37.644;2024-03-17T00:25:38;22.77;;;4.72;;
75785;SDS011;64402;44.708;37.644;2024-03-17T00:28:06;20.95;;;4.40;;
75785;SDS011;64402;44.708;37.644;2024-03-17T00:30:33;21.77;;;4.07;;
75785;SDS011;64402;44.708;37.644;2024-03-17T00:33:00;27.20;;;4.57;;
75785;SDS011;64402;44.708;37.644;2024-03-17T00:35:27;21.02;;;4.00;;
75785;SDS011;64402;44.708;37.644;2024-03-17T00:37:54;25.77;;;4.47;;
75785;SDS011;64402;44.708;37.644;2024-03-17T00:40:20;20.13;;;4.85;;
75785;SDS011;64402;44.708;37.644;2024-03-17T00:42:47;21.42;;;4.85;;
75785;SDS011;64402;44.708;37.644;2024-03-17T00:45:15;20.60;;;4.80;;
75785;SDS011;64402;44.708;37.644;2024-03-17T00:47:41;23.00;;;4.95;;
75785;SDS011;64402;44.708;37.644;2024-03-17T00:50:09;18.95;;;4.50;;
75785;SDS011;64402;44.708;37.644;2024-03-17T00:52:37;21.92;;;4.80;;
75785;SDS011;64402;44.708;37.644;2024-03-17T00:55:05;23.75;;;4.63;;
75785;SDS011;64402;44.708;37.644;2024-03-17T00:57:32;19.48;;;4.07;;
75785;SDS011;64402;44.708;37.644;2024-03-17T00:59:59;27.73;;;4.85;;
75785;SDS011;64402;44.708;37.644;2024-03-17T01:02:25;20.95;;;4.38;;
75785;SDS011;64402;44.708;37.644;2024-03-17T01:04:55;26.00;;;4.25;;
75785;SDS011;64402;44.708;37.644;2024-03-17T01:07:22;22.73;;;4.63;;
75785;SDS011;64402;44.708;37.644;2024-03-17T01:09:49;23.60;;;4.10;;
75785;SDS011;64402;44.708;37.644;2024-03-17T01:12:18;19.05;;;4.47;;
75785;SDS011;64402;44.708;37.644;2024-03-17T01:14:45;22.13;;;4.53;;
75785;SDS011;64402;44.708;37.644;2024-03-17T01:17:12;21.67;;;4.40;;
75785;SDS011;64402;44.708;37.644;2024-03-17T01:19:39;30.13;;;4.30;;
75785;SDS011;64402;44.708;37.644;2024-03-17T01:22:06;19.67;;;4.25;;
75785;SDS011;64402;44.708;37.644;2024-03-17T01:24:33;19.77;;;4.28;;
75785;SDS011;64402;44.708;37.644;2024-03-17T01:27:00;19.00;;;4.43;;
75785;SDS011;64402;44.708;37.644;2024-03-17T01:29:27;26.90;;;4.63;;
75785;SDS011;64402;44.708;37.644;2024-03-17T01:31:54;21.15;;;4.28;;
75785;SDS011;64402;44.708;37.644;2024-03-17T01:34:22;17.02;;;3.58;;
75785;SDS011;64402;44.708;37.644;2024-03-17T01:36:49;18.98;;;4.07;;
75785;SDS011;64402;44.708;37.644;2024-03-17T01:39:17;21.55;;;4.32;;
75785;SDS011;64402;44.708;37.644;2024-03-17T01:41:44;21.63;;;4.18;;
75785;SDS011;64402;44.708;37.644;2024-03-17T01:44:21;18.92;;;4.28;;
75785;SDS011;64402;44.708;37.644;2024-03-17T01:46:54;22.35;;;4.18;;
75785;SDS011;64402;44.708;37.644;2024-03-17T01:49:22;26.10;;;5.22;;
75785;SDS011;64402;44.708;37.644;2024-03-17T01:51:49;26.40;;;4.60;;
75785;SDS011;64402;44.708;37.644;2024-03-17T01:54:16;22.75;;;4.95;;
75785;SDS011;64402;44.708;37.644;2024-03-17T01:56:46;22.50;;;4.82;;
75785;SDS011;64402;44.708;37.644;2024-03-17T01:59:14;17.52;;;3.60;;
75785;SDS011;64402;44.708;37.644;2024-03-17T02:01:41;25.65;;;4.30;;
75785;SDS011;64402;44.708;37.644;2024-03-17T02:04:10;27.02;;;4.88;;
75785;SDS011;64402;44.708;37.644;2024-03-17T02:06:38;27.63;;;4.80;;
75785;SDS011;64402;44.708;37.644;2024-03-17T02:09:05;32.97;;;4.80;;
75785;SDS011;64402;44.708;37.644;2024-03-17T02:11:33;18.70;;;4.13;;
75785;SDS011;64402;44.708;37.644;2024-03-17T02:14:00;19.42;;;4.30;;
75785;SDS011;64402;44.708;37.644;2024-03-17T02:16:27;21.58;;;4.80;;
75785;SDS011;64402;44.708;37.644;2024-03-17T02:18:55;17.63;;;4.53;;
75785;SDS011;64402;44.708;37.644;2024-03-17T02:21:23;28.50;;;4.78;;
75785;SDS011;64402;44.708;37.644;2024-03-17T02:23:54;21.25;;;4.35;;
75785;SDS011;64402;44.708;37.644;2024-03-17T02:26:23;20.83;;;4.40;;
75785;SDS011;64402;44.708;37.644;2024-03-17T02:28:52;18.55;;;4.30;;
75785;SDS011;64402;44.708;37.644;2024-03-17T02:31:19;18.63;;;4.22;;
75785;SDS011;64402;44.708;37.644;2024-03-17T02:33:48;25.10;;;4.63;;
75785;SDS011;64402;44.708;37.644;2024-03-17T02:36:15;23.05;;;4.18;;
75785;SDS011;64402;44.708;37.644;2024-03-17T02:38:43;23.10;;;4.85;;
75785;SDS011;64402;44.708;37.644;2024-03-17T02:41:29;26.25;;;4.53;;
75785;SDS011;64402;44.708;37.644;2024-03-17T02:43:55;23.00;;;4.20;;
75785;SDS011;64402;44.708;37.644;2024-03-17T02:46:22;20.55;;;4.50;;
75785;SDS011;64402;44.708;37.644;2024-03-17T02:48:51;23.63;;;5.25;;
75785;SDS011;64402;44.708;37.644;2024-03-17T02:51:19;40.08;;;10.82;;
75785;SDS011;64402;44.708;37.644;2024-03-17T02:53:48;33.17;;;10.40;;
75785;SDS011;64402;44.708;37.644;2024-03-17T02:56:15;21.70;;;5.45;;
75785;SDS011;64402;44.708;37.644;2024-03-17T02:58:44;16.20;;;4.05;;
75785;SDS011;64402;44.708;37.644;2024-03-17T03:01:12;25.73;;;4.75;;
75785;SDS011;64402;44.708;37.644;2024-03-17T03:03:43;26.15;;;4.68;;
75785;SDS011;64402;44.708;37.644;2024-03-17T03:06:12;17.67;;;4.32;;
75785;SDS011;64402;44.708;37.644;2024-03-17T03:08:41;20.52;;;4.65;;
75785;SDS011;64402;44.708;37.644;2024-03-17T03:11:09;27.23;;;5.43;;
75785;SDS011;64402;44.708;37.644;2024-03-17T03:13:38;26.02;;;7.05;;
75785;SDS011;64402;44.708;37.644;2024-03-17T03:16:07;30.77;;;5.47;;
75785;SDS011;64402;44.708;37.644;2024-03-17T03:18:35;22.55;;;4.68;;
75785;SDS011;64402;44.708;37.644;2024-03-17T03:23:34;17.42;;;4.38;;
75785;SDS011;64402;44.708;37.644;2024-03-17T03:26:01;28.20;;;5.00;;
75785;SDS011;64402;44.708;37.644;2024-03-17T03:28:30;22.38;;;5.13;;
75785;SDS011;64402;44.708;37.644;2024-03-17T03:30:58;24.05;;;4.88;;
75785;SDS011;64402;44.708;37.644;2024-03-17T03:33:26;19.33;;;4.90;;
75785;SDS011;64402;44.708;37.644;2024-03-17T03:35:53;26.00;;;5.00;;
75785;SDS011;64402;44.708;37.644;2024-03-17T03:38:21;23.40;;;5.25;;
75785;SDS011;64402;44.708;37.644;2024-03-17T03:40:49;23.40;;;5.68;;
75785;SDS011;64402;44.708;37.644;2024-03-17T03:43:16;24.15;;;4.93;;
75785;SDS011;64402;44.708;37.644;2024-03-17T03:45:44;21.60;;;4.82;;
75785;SDS011;64402;44.708;37.644;2024-03-17T03:48:11;28.38;;;5.35;;
75785;SDS011;64402;44.708;37.644;2024-03-17T03:50:42;18.40;;;4.70;;
75785;SDS011;64402;44.708;37.644;2024-03-17T03:53:09;24.73;;;4.57;;
75785;SDS011;64402;44.708;37.644;2024-03-17T03:55:37;25.90;;;4.22;;
75785;SDS011;64402;44.708;37.644;2024-03-17T03:58:04;26.05;;;4.97;;
75785;SDS011;64402;44.708;37.644;2024-03-17T04:00:31;31.25;;;4.95;;
75785;SDS011;64402;44.708;37.644;2024-03-17T04:02:58;30.55;;;5.28;;
75785;SDS011;64402;44.708;37.644;2024-03-17T04:05:26;23.90;;;4.65;;
75785;SDS011;64402;44.708;37.644;2024-03-17T04:07:52;32.45;;;5.05;;
75785;SDS011;64402;44.708;37.644;2024-03-17T04:10:18;23.85;;;4.95;;
75785;SDS011;64402;44.708;37.644;2024-03-17T04:12:46;23.27;;;5.38;;
75785;SDS011;64402;44.708;37.644;2024-03-17T04:15:13;28.55;;;5.38;;
75785;SDS011;64402;44.708;37.644;2024-03-17T04:17:40;26.65;;;5.25;;
75785;SDS011;64402;44.708;37.644;2024-03-17T04:20:07;24.63;;;6.13;;
75785;SDS011;64402;44.708;37.644;2024-03-17T04:22:35;28.92;;;5.95;;
75785;SDS011;64402;44.708;37.644;2024-03-17T04:25:02;38.15;;;9.68;;
75785;SDS011;64402;44.708;37.644;2024-03-17T04:27:29;30.38;;;5.45;;
75785;SDS011;64402;44.708;37.644;2024-03-17T04:29:56;30.55;;;5.60;;
75785;SDS011;64402;44.708;37.644;2024-03-17T04:32:24;28.85;;;5.47;;
75785;SDS011;64402;44.708;37.644;2024-03-17T04:34:52;19.23;;;5.47;;
75785;SDS011;64402;44.708;37.644;2024-03-17T04:37:18;30.95;;;6.07;;
75785;SDS011;64402;44.708;37.644;2024-03-17T04:39:46;29.27;;;5.10;;
75785;SDS011;64402;44.708;37.644;2024-03-17T04:42:13;36.72;;;5.80;;
75785;SDS011;64402;44.708;37.644;2024-03-17T04:44:42;32.33;;;5.30;;
75785;SDS011;64402;44.708;37.644;2024-03-17T04:47:09;25.60;;;5.13;;
75785;SDS011;64402;44.708;37.644;2024-03-17T04:49:37;28.73;;;5.25;;
75785;SDS011;64402;44.708;37.644;2024-03-17T04:52:04;28.27;;;4.93;;
75785;SDS011;64402;44.708;37.644;2024-03-17T04:54:34;28.58;;;4.68;;
75785;SDS011;64402;44.708;37.644;2024-03-17T04:57:03;28.08;;;5.38;;
75785;SDS011;64402;44.708;37.644;2024-03-17T04:59:33;20.27;;;4.85;;
75785;SDS011;64402;44.708;37.644;2024-03-17T05:02:02;22.48;;;4.57;;
75785;SDS011;64402;44.708;37.644;2024-03-17T05:04:29;28.35;;;4.55;;
75785;SDS011;64402;44.708;37.644;2024-03-17T05:06:56;33.50;;;4.90;;
75785;SDS011;64402;44.708;37.644;2024-03-17T05:09:22;30.50;;;4.72;;
75785;SDS011;64402;44.708;37.644;2024-03-17T05:11:52;35.65;;;5.25;;
75785;SDS011;64402;44.708;37.644;2024-03-17T05:14:18;32.10;;;5.15;;
75785;SDS011;64402;44.708;37.644;2024-03-17T05:16:54;39.97;;;5.68;;
75785;SDS011;64402;44.708;37.644;2024-03-17T05:19:21;47.00;;;6.60;;
75785;SDS011;64402;44.708;37.644;2024-03-17T05:21:49;31.52;;;5.07;;
75785;SDS011;64402;44.708;37.644;2024-03-17T05:24:15;34.55;;;6.10;;
75785;SDS011;64402;44.708;37.644;2024-03-17T05:26:42;31.45;;;5.25;;
75785;SDS011;64402;44.708;37.644;2024-03-17T05:29:09;39.80;;;6.13;;
75785;SDS011;64402;44.708;37.644;2024-03-17T05:31:35;30.55;;;5.43;;
75785;SDS011;64402;44.708;37.644;2024-03-17T05:34:02;36.13;;;5.72;;
75785;SDS011;64402;44.708;37.644;2024-03-17T05:36:28;31.85;;;4.88;;
75785;SDS011;64402;44.708;37.644;2024-03-17T05:38:58;25.80;;;5.40;;
75785;SDS011;64402;44.708;37.644;2024-03-17T05:41:25;27.15;;;5.68;;
75785;SDS011;64402;44.708;37.644;2024-03-17T05:43:52;32.50;;;4.65;;
75785;SDS011;64402;44.708;37.644;2024-03-17T05:46:18;19.42;;;5.10;;
75785;SDS011;64402;44.708;37.644;2024-03-17T05:48:44;32.10;;;4.55;;
75785;SDS011;64402;44.708;37.644;2024-03-17T05:51:11;39.08;;;4.95;;
75785;SDS011;64402;44.708;37.644;2024-03-17T05:53:38;29.13;;;5.38;;
75785;SDS011;64402;44.708;37.644;2024-03-17T05:56:12;35.55;;;5.57;;
75785;SDS011;64402;44.708;37.644;2024-03-17T05:58:39;27.05;;;5.20;;
75785;SDS011;64402;44.708;37.644;2024-03-17T06:01:05;29.02;;;4.57;;
75785;SDS011;64402;44.708;37.644;2024-03-17T06:03:35;33.38;;;5.22;;
75785;SDS011;64402;44.708;37.644;2024-03-17T06:06:03;31.85;;;4.78;;
75785;SDS011;64402;44.708;37.644;2024-03-17T06:08:31;40.67;;;5.07;;
75785;SDS011;64402;44.708;37.644;2024-03-17T06:10:57;29.45;;;5.43;;
75785;SDS011;64402;44.708;37.644;2024-03-17T06:13:29;33.15;;;5.30;;
75785;SDS011;64402;44.708;37.644;2024-03-17T06:15:57;28.90;;;5.10;;
75785;SDS011;64402;44.708;37.644;2024-03-17T06:18:27;29.85;;;5.07;;
75785;SDS011;64402;44.708;37.644;2024-03-17T06:20:54;45.20;;;6.13;;
75785;SDS011;64402;44.708;37.644;2024-03-17T06:23:27;31.40;;;4.30;;
75785;SDS011;64402;44.708;37.644;2024-03-17T06:25:54;40.75;;;4.75;;
75785;SDS011;64402;44.708;37.644;2024-03-17T06:28:24;29.00;;;4.22;;
75785;SDS011;64402;44.708;37.644;2024-03-17T06:30:58;30.40;;;5.03;;
75785;SDS011;64402;44.708;37.644;2024-03-17T06:33:33;25.10;;;4.28;;
75785;SDS011;64402;44.708;37.644;2024-03-17T06:36:03;27.38;;;4.63;;
75785;SDS011;64402;44.708;37.644;2024-03-17T06:38:34;18.83;;;4.57;;
75785;SDS011;64402;44.708;37.644;2024-03-17T06:41:01;33.60;;;5.00;;
75785;SDS011;64402;44.708;37.644;2024-03-17T06:43:28;37.78;;;5.07;;
75785;SDS011;64402;44.708;37.644;2024-03-17T06:45:59;38.40;;;4.70;;
75785;SDS011;64402;44.708;37.644;2024-03-17T06:48:32;24.65;;;5.03;;
75785;SDS011;64402;44.708;37.644;2024-03-17T06:50:59;60.72;;;6.35;;
75785;SDS011;64402;44.708;37.644;2024-03-17T06:53:27;25.80;;;5.13;;
75785;SDS011;64402;44.708;37.644;2024-03-17T06:55:58;33.63;;;6.28;;
75785;SDS011;64402;44.708;37.644;2024-03-17T06:58:26;42.45;;;6.28;;
75785;SDS011;64402;44.708;37.644;2024-03-17T07:00:54;28.02;;;5.82;;
75785;SDS011;64402;44.708;37.644;2024-03-17T07:03:26;26.80;;;5.25;;
75785;SDS011;64402;44.708;37.644;2024-03-17T07:05:57;31.92;;;6.32;;
75785;SDS011;64402;44.708;37.644;2024-03-17T07:08:29;41.28;;;6.05;;
75785;SDS011;64402;44.708;37.644;2024-03-17T07:11:01;31.35;;;5.57;;
75785;SDS011;64402;44.708;37.644;2024-03-17T07:13:36;32.95;;;6.22;;
75785;SDS011;64402;44.708;37.644;2024-03-17T07:16:08;38.97;;;6.20;;
75785;SDS011;64402;44.708;37.644;2024-03-17T07:18:36;30.40;;;5.78;;
75785;SDS011;64402;44.708;37.644;2024-03-17T07:21:03;43.05;;;6.53;;
75785;SDS011;64402;44.708;37.644;2024-03-17T07:23:31;44.30;;;7.00;;
75785;SDS011;64402;44.708;37.644;2024-03-17T07:28:28;35.65;;;6.32;;
75785;SDS011;64402;44.708;37.644;2024-03-17T07:30:57;39.00;;;6.45;;
75785;SDS011;64402;44.708;37.644;2024-03-17T07:33:26;41.90;;;6.78;;
75785;SDS011;64402;44.708;37.644;2024-03-17T07:35:54;32.20;;;6.03;;
75785;SDS011;64402;44.708;37.644;2024-03-17T07:38:26;26.38;;;6.47;;
75785;SDS011;64402;44.708;37.644;2024-03-17T07:41:02;26.70;;;5.88;;
75785;SDS011;64402;44.708;37.644;2024-03-17T07:43:31;30.23;;;5.97;;
75785;SDS011;64402;44.708;37.644;2024-03-17T07:46:07;26.85;;;6.05;;
75785;SDS011;64402;44.708;37.644;2024-03-17T07:48:38;29.13;;;6.65;;
75785;SDS011;64402;44.708;37.644;2024-03-17T07:51:07;33.38;;;6.82;;
75785;SDS011;64402;44.708;37.644;2024-03-17T07:53:37;34.05;;;6.25;;
75785;SDS011;64402;44.708;37.644;2024-03-17T07:56:06;37.70;;;7.20;;
75785;SDS011;64402;44.708;37.644;2024-03-17T07:58:38;36.20;;;6.88;;
75785;SDS011;64402;44.708;37.644;2024-03-17T08:01:12;31.42;;;5.68;;
75785;SDS011;64402;44.708;37.644;2024-03-17T08:03:42;30.83;;;6.45;;
75785;SDS011;64402;44.708;37.644;2024-03-17T08:06:12;25.10;;;6.53;;
75785;SDS011;64402;44.708;37.644;2024-03-17T08:08:39;26.88;;;6.00;;
75785;SDS011;64402;44.708;37.644;2024-03-17T08:11:10;33.70;;;6.60;;
75785;SDS011;64402;44.708;37.644;2024-03-17T08:13:37;29.05;;;6.90;;
75785;SDS011;64402;44.708;37.644;2024-03-17T08:16:06;25.00;;;6.35;;
75785;SDS011;64402;44.708;37.644;2024-03-17T08:18:39;37.75;;;6.55;;
75785;SDS011;64402;44.708;37.644;2024-03-17T08:21:06;30.77;;;6.07;;
75785;SDS011;64402;44.708;37.644;2024-03-17T08:23:33;24.15;;;5.13;;
75785;SDS011;64402;44.708;37.644;2024-03-17T08:26:07;31.55;;;6.25;;
75785;SDS011;64402;44.708;37.644;2024-03-17T08:28:35;30.38;;;6.10;;
75785;SDS011;64402;44.708;37.644;2024-03-17T08:31:03;30.25;;;6.05;;
75785;SDS011;64402;44.708;37.644;2024-03-17T08:33:30;33.15;;;6.38;;
75785;SDS011;64402;44.708;37.644;2024-03-17T08:36:00;25.98;;;5.50;;
75785;SDS011;64402;44.708;37.644;2024-03-17T08:38:35;26.63;;;5.70;;
75785;SDS011;64402;44.708;37.644;2024-03-17T08:41:03;30.05;;;6.50;;
75785;SDS011;64402;44.708;37.644;2024-03-17T08:43:37;30.10;;;5.43;;
75785;SDS011;64402;44.708;37.644;2024-03-17T08:46:05;32.72;;;6.80;;
75785;SDS011;64402;44.708;37.644;2024-03-17T08:48:37;33.33;;;5.55;;
75785;SDS011;64402;44.708;37.644;2024-03-17T08:51:06;36.10;;;5.80;;
75785;SDS011;64402;44.708;37.644;2024-03-17T08:53:34;30.70;;;7.00;;
75785;SDS011;64402;44.708;37.644;2024-03-17T08:56:02;26.30;;;5.45;;
75785;SDS011;64402;44.708;37.644;2024-03-17T08:58:30;35.58;;;7.03;;
75785;SDS011;64402;44.708;37.644;2024-03-17T09:00:57;22.48;;;5.55;;
75785;SDS011;64402;44.708;37.644;2024-03-17T09:03:24;28.85;;;5.72;;
75785;SDS011;64402;44.708;37.644;2024-03-17T09:05:53;29.08;;;5.43;;
75785;SDS011;64402;44.708;37.644;2024-03-17T09:08:21;22.08;;;5.70;;
75785;SDS011;64402;44.708;37.644;2024-03-17T09:10:50;25.45;;;5.55;;
75785;SDS011;64402;44.708;37.644;2024-03-17T09:13:19;23.48;;;5.28;;
75785;SDS011;64402;44.708;37.644;2024-03-17T09:18:19;22.35;;;5.43;;
75785;SDS011;64402;44.708;37.644;2024-03-17T09:23:34;25.70;;;5.22;;
75785;SDS011;64402;44.708;37.644;2024-03-17T09:26:04;25.20;;;4.70;;
75785;SDS011;64402;44.708;37.644;2024-03-17T09:28:34;35.22;;;5.78;;
75785;SDS011;64402;44.708;37.644;2024-03-17T09:31:02;23.60;;;4.43;;
75785;SDS011;64402;44.708;37.644;2024-03-17T09:33:33;21.83;;;4.40;;
75785;SDS011;64402;44.708;37.644;2024-03-17T09:36:01;29.25;;;5.00;;
75785;SDS011;64402;44.708;37.644;2024-03-17T09:38:29;26.85;;;4.97;;
75785;SDS011;64402;44.708;37.644;2024-03-17T09:40:56;33.08;;;5.60;;
75785;SDS011;64402;44.708;37.644;2024-03-17T09:43:23;31.08;;;6.03;;
75785;SDS011;64402;44.708;37.644;2024-03-17T09:45:53;24.08;;;4.70;;
75785;SDS011;64402;44.708;37.644;2024-03-17T09:48:23;18.17;;;4.13;;
75785;SDS011;64402;44.708;37.644;2024-03-17T09:50:51;26.10;;;6.05;;
75785;SDS011;64402;44.708;37.644;2024-03-17T09:53:23;19.20;;;4.47;;
75785;SDS011;64402;44.708;37.644;2024-03-17T09:55:52;24.13;;;4.85;;
75785;SDS011;64402;44.708;37.644;2024-03-17T09:58:23;29.27;;;4.95;;
75785;SDS011;64402;44.708;37.644;2024-03-17T10:00:50;35.22;;;5.25;;
75785;SDS011;64402;44.708;37.644;2024-03-17T10:06:30;26.85;;;5.03;;
75785;SDS011;64402;44.708;37.644;2024-03-17T10:08:58;27.90;;;6.13;;
75785;SDS011;64402;44.708;37.644;2024-03-17T10:11:33;22.25;;;4.57;;
75785;SDS011;64402;44.708;37.644;2024-03-17T10:14:01;22.73;;;4.72;;
75785;SDS011;64402;44.708;37.644;2024-03-17T10:16:34;26.27;;;5.05;;
75785;SDS011;64402;44.708;37.644;2024-03-17T10:19:09;23.73;;;5.10;;
75785;SDS011;64402;44.708;37.644;2024-03-17T10:21:38;27.45;;;5.72;;
75785;SDS011;64402;44.708;37.644;2024-03-17T10:24:12;30.42;;;4.97;;
75785;SDS011;64402;44.708;37.644;2024-03-17T10:26:49;29.60;;;5.90;;
75785;SDS011;64402;44.708;37.644;2024-03-17T10:29:24;31.60;;;4.90;;
75785;SDS011;64402;44.708;37.644;2024-03-17T10:34:22;25.95;;;5.30;;
75785;SDS011;64402;44.708;37.644;2024-03-17T10:39:36;19.33;;;4.35;;
75785;SDS011;64402;44.708;37.644;2024-03-17T10:42:04;33.03;;;5.28;;
75785;SDS011;64402;44.708;37.644;2024-03-17T10:44:31;28.05;;;4.80;;
75785;SDS011;64402;44.708;37.644;2024-03-17T10:47:01;26.30;;;4.57;;
75785;SDS011;64402;44.708;37.644;2024-03-17T10:49:32;20.35;;;4.53;;
75785;SDS011;64402;44.708;37.644;2024-03-17T10:52:01;23.65;;;4.88;;
75785;SDS011;64402;44.708;37.644;2024-03-17T10:54:30;21.67;;;4.60;;
75785;SDS011;64402;44.708;37.644;2024-03-17T10:56:59;25.98;;;4.38;;
75785;SDS011;64402;44.708;37.644;2024-03-17T10:59:31;24.38;;;5.00;;
75785;SDS011;64402;44.708;37.644;2024-03-17T11:02:26;25.20;;;5.20;;
75785;SDS011;64402;44.708;37.644;2024-03-17T11:05:05;27.55;;;5.80;;
75785;SDS011;64402;44.708;37.644;2024-03-17T11:07:40;21.02;;;4.65;;
75785;SDS011;64402;44.708;37.644;2024-03-17T11:10:20;18.77;;;4.30;;
75785;SDS011;64402;44.708;37.644;2024-03-17T11:20:36;27.48;;;5.13;;
75785;SDS011;64402;44.708;37.644;2024-03-17T11:23:05;22.90;;;5.25;;
75785;SDS011;64402;44.708;37.644;2024-03-17T11:28:05;25.77;;;4.78;;
75785;SDS011;64402;44.708;37.644;2024-03-17T11:51:59;27.67;;;4.63;;
75785;SDS011;64402;44.708;37.644;2024-03-17T11:54:27;26.40;;;5.72;;
75785;SDS011;64402;44.708;37.644;2024-03-17T11:59:29;23.80;;;4.93;;
75785;SDS011;64402;44.708;37.644;2024-03-17T12:01:56;24.58;;;4.32;;
75785;SDS011;64402;44.708;37.644;2024-03-17T12:04:24;25.75;;;4.63;;
75785;SDS011;64402;44.708;37.644;2024-03-17T12:06:52;22.98;;;6.70;;
75785;SDS011;64402;44.708;37.644;2024-03-17T12:09:28;20.20;;;5.10;;
75785;SDS011;64402;44.708;37.644;2024-03-17T12:12:04;29.92;;;7.07;;
75785;SDS011;64402;44.708;37.644;2024-03-17T12:14:36;27.05;;;5.05;;
75785;SDS011;64402;44.708;37.644;2024-03-17T12:17:04;20.60;;;4.88;;
75785;SDS011;64402;44.708;37.644;2024-03-17T12:19:33;14.32;;;3.80;;
75785;SDS011;64402;44.708;37.644;2024-03-17T12:22:01;18.15;;;3.55;;
75785;SDS011;64402;44.708;37.644;2024-03-17T12:24:32;11.18;;;2.80;;
75785;SDS011;64402;44.708;37.644;2024-03-17T12:27:00;15.60;;;3.20;;
75785;SDS011;64402;44.708;37.644;2024-03-17T12:29:39;27.15;;;3.50;;
75785;SDS011;64402;44.708;37.644;2024-03-17T12:32:13;26.67;;;3.33;;
75785;SDS011;64402;44.708;37.644;2024-03-17T12:34:41;14.82;;;3.05;;
75785;SDS011;64402;44.708;37.644;2024-03-17T12:37:12;16.77;;;2.85;;
75785;SDS011;64402;44.708;37.644;2024-03-17T12:40:00;15.35;;;3.67;;
75785;SDS011;64402;44.708;37.644;2024-03-17T12:42:27;13.25;;;3.00;;
75785;SDS011;64402;44.708;37.644;2024-03-17T12:44:54;11.93;;;2.63;;
75785;SDS011;64402;44.708;37.644;2024-03-17T12:47:25;22.25;;;2.67;;
75785;SDS011;64402;44.708;37.644;2024-03-17T12:49:54;12.68;;;2.50;;
75785;SDS011;64402;44.708;37.644;2024-03-17T12:55:02;11.25;;;2.47;;
75785;SDS011;64402;44.708;37.644;2024-03-17T12:57:51;11.45;;;2.60;;
75785;SDS011;64402;44.708;37.644;2024-03-17T13:06:00;11.63;;;2.70;;
75785;SDS011;64402;44.708;37.644;2024-03-17T13:11:00;69.15;;;13.65;;
75785;SDS011;64402;44.708;37.644;2024-03-17T13:13:29;113.35;;;24.70;;
75785;SDS011;64402;44.708;37.644;2024-03-17T13:15:56;15.88;;;3.47;;
75785;SDS011;64402;44.708;37.644;2024-03-17T13:18:22;25.13;;;4.57;;
75785;SDS011;64402;44.708;37.644;2024-03-17T13:20:49;21.73;;;3.70;;
75785;SDS011;64402;44.708;37.644;2024-03-17T13:23:16;18.80;;;4.53;;
75785;SDS011;64402;44.708;37.644;2024-03-17T13:25:42;17.02;;;4.75;;
75785;SDS011;64402;44.708;37.644;2024-03-17T13:28:10;21.30;;;4.68;;
75785;SDS011;64402;44.708;37.644;2024-03-17T13:30:37;47.03;;;9.48;;
75785;SDS011;64402;44.708;37.644;2024-03-17T13:33:04;25.20;;;5.28;;
75785;SDS011;64402;44.708;37.644;2024-03-17T13:35:35;10.68;;;3.20;;
75785;SDS011;64402;44.708;37.644;2024-03-17T13:38:05;11.02;;;2.78;;
75785;SDS011;64402;44.708;37.644;2024-03-17T13:40:36;13.48;;;2.78;;
75785;SDS011;64402;44.708;37.644;2024-03-17T13:43:04;15.50;;;3.63;;
75785;SDS011;64402;44.708;37.644;2024-03-17T13:45:32;16.85;;;3.78;;
75785;SDS011;64402;44.708;37.644;2024-03-17T13:48:06;32.65;;;12.98;;
75785;SDS011;64402;44.708;37.644;2024-03-17T13:50:36;21.27;;;4.30;;
75785;SDS011;64402;44.708;37.644;2024-03-17T13:53:10;22.60;;;4.22;;
75785;SDS011;64402;44.708;37.644;2024-03-17T13:55:36;31.10;;;3.65;;
75785;SDS011;64402;44.708;37.644;2024-03-17T14:00:30;14.50;;;3.40;;
75785;SDS011;64402;44.708;37.644;2024-03-17T14:03:02;30.58;;;4.43;;
75785;SDS011;64402;44.708;37.644;2024-03-17T14:05:29;19.42;;;4.35;;
75785;SDS011;64402;44.708;37.644;2024-03-17T14:07:56;20.98;;;3.53;;
75785;SDS011;64402;44.708;37.644;2024-03-17T14:10:24;20.13;;;3.83;;
75785;SDS011;64402;44.708;37.644;2024-03-17T14:12:51;19.10;;;3.58;;
75785;SDS011;64402;44.708;37.644;2024-03-17T14:15:19;19.67;;;4.20;;
75785;SDS011;64402;44.708;37.644;2024-03-17T14:17:47;24.60;;;4.00;;
75785;SDS011;64402;44.708;37.644;2024-03-17T14:20:14;23.38;;;5.47;;
75785;SDS011;64402;44.708;37.644;2024-03-17T14:22:44;25.50;;;7.60;;
75785;SDS011;64402;44.708;37.644;2024-03-17T14:25:21;17.65;;;4.18;;
75785;SDS011;64402;44.708;37.644;2024-03-17T14:27:47;15.98;;;3.85;;
75785;SDS011;64402;44.708;37.644;2024-03-17T14:30:15;20.20;;;4.43;;
75785;SDS011;64402;44.708;37.644;2024-03-17T14:32:43;22.85;;;5.32;;
75785;SDS011;64402;44.708;37.644;2024-03-17T14:35:12;20.15;;;5.63;;
75785;SDS011;64402;44.708;37.644;2024-03-17T14:37:43;26.23;;;5.68;;
75785;SDS011;64402;44.708;37.644;2024-03-17T14:40:14;19.92;;;5.20;;
75785;SDS011;64402;44.708;37.644;2024-03-17T14:42:53;20.85;;;5.55;;
75785;SDS011;64402;44.708;37.644;2024-03-17T14:45:21;53.65;;;7.85;;
75785;SDS011;64402;44.708;37.644;2024-03-17T14:47:50;47.63;;;5.20;;
75785;SDS011;64402;44.708;37.644;2024-03-17T14:50:17;23.08;;;5.53;;
75785;SDS011;64402;44.708;37.644;2024-03-17T14:52:44;25.25;;;4.47;;
75785;SDS011;64402;44.708;37.644;2024-03-17T14:55:12;18.55;;;3.97;;
75785;SDS011;64402;44.708;37.644;2024-03-17T14:57:39;21.08;;;3.88;;
75785;SDS011;64402;44.708;37.644;2024-03-17T15:00:07;24.35;;;4.30;;
75785;SDS011;64402;44.708;37.644;2024-03-17T15:02:46;23.17;;;5.70;;
75785;SDS011;64402;44.708;37.644;2024-03-17T15:05:13;17.80;;;3.22;;
75785;SDS011;64402;44.708;37.644;2024-03-17T15:07:57;24.05;;;4.20;;
75785;SDS011;64402;44.708;37.644;2024-03-17T15:10:24;26.33;;;5.72;;
75785;SDS011;64402;44.708;37.644;2024-03-17T15:12:51;31.58;;;4.13;;
75785;SDS011;64402;44.708;37.644;2024-03-17T15:15:17;146.70;;;57.00;;
75785;SDS011;64402;44.708;37.644;2024-03-17T15:17:44;115.80;;;47.83;;
75785;SDS011;64402;44.708;37.644;2024-03-17T15:20:11;117.03;;;57.33;;
75785;SDS011;64402;44.708;37.644;2024-03-17T15:22:48;37.47;;;11.18;;
75785;SDS011;64402;44.708;37.644;2024-03-17T15:25:15;30.00;;;8.15;;
75785;SDS011;64402;44.708;37.644;2024-03-17T15:27:42;37.55;;;5.97;;
75785;SDS011;64402;44.708;37.644;2024-03-17T15:30:13;24.08;;;5.22;;
75785;SDS011;64402;44.708;37.644;2024-03-17T15:32:48;29.05;;;5.80;;
75785;SDS011;64402;44.708;37.644;2024-03-17T15:35:16;39.28;;;10.05;;
75785;SDS011;64402;44.708;37.644;2024-03-17T15:37:43;36.13;;;10.02;;